Terminal Aerodrome Forecast
Issued by NWS

Home | Current Version | Previous Version | Text Only | Print | Product List | Glossary On
Versions: 1 2 3 4 5 6 7 8 9 10 11 12 13 14 15 16 17 18 19 20 21 22 23
000
FTUS46 KEKA 280524
TAFCEC
TAF
KCEC 280524Z 2806/2906 35015G25KT P6SM SKC
     FM280800 34010G15KT 6SM BR SKC
     FM281200 36004KT 4SM BR SCT003
     FM281700 33010G18KT P6SM SKC
     FM281900 34014G24KT P6SM SKC=

USA.gov is the U.S. government's official web portal to all federal, state and local government web resources and services.